createdAt,value
2017-06-19T00:00:11.377Z,20.60
2017-06-19T00:02:37.542Z,20.60
2017-06-19T00:05:06.838Z,20.50
2017-06-19T00:07:33.872Z,20.50
2017-06-19T00:10:00.841Z,20.50
2017-06-19T00:12:27.061Z,20.50
2017-06-19T00:14:53.979Z,20.50
2017-06-19T00:17:20.134Z,20.50
2017-06-19T00:19:47.074Z,20.50
2017-06-19T00:22:14.061Z,20.50
2017-06-19T00:24:40.241Z,20.50
2017-06-19T00:27:07.167Z,20.40
2017-06-19T00:29:33.396Z,20.40
2017-06-19T00:31:59.580Z,20.40
2017-06-19T00:34:25.774Z,20.20
2017-06-19T00:36:52.723Z,20.30
2017-06-19T00:39:19.646Z,20.30
2017-06-19T00:41:45.893Z,20.30
2017-06-19T00:44:12.846Z,20.30
2017-06-19T00:46:39.773Z,20.30
2017-06-19T00:49:05.964Z,20.30
2017-06-19T00:51:47.093Z,20.30
2017-06-19T00:54:14.038Z,20.30
2017-06-19T00:56:40.987Z,20.20
2017-06-19T00:59:07.885Z,20.20
2017-06-19T01:01:34.082Z,20.20
2017-06-19T01:04:00.308Z,20.20
2017-06-19T01:06:26.507Z,20.20
2017-06-19T01:08:53.411Z,20.10
2017-06-19T01:11:19.602Z,20.10
2017-06-19T01:13:45.854Z,20.10
2017-06-19T01:16:12.029Z,20.00
2017-06-19T01:18:38.204Z,20.00
2017-06-19T01:21:04.359Z,20.00
2017-06-19T01:23:30.569Z,19.90
2017-06-19T01:25:58.279Z,19.90
2017-06-19T01:28:24.447Z,19.90
2017-06-19T01:30:50.691Z,19.90
2017-06-19T01:33:16.874Z,19.90
2017-06-19T01:35:43.814Z,19.90
2017-06-19T01:38:10.038Z,19.90
2017-06-19T01:40:51.148Z,19.80
2017-06-19T01:43:17.386Z,19.80
2017-06-19T01:45:43.579Z,19.70
2017-06-19T01:48:10.491Z,19.60
2017-06-19T01:50:36.698Z,19.60
2017-06-19T01:53:02.931Z,19.60
2017-06-19T01:55:29.098Z,19.60
2017-06-19T01:57:55.298Z,19.60
2017-06-19T02:00:21.495Z,19.70
2017-06-19T02:02:47.664Z,19.60
2017-06-19T02:05:13.839Z,19.60
2017-06-19T02:07:40.781Z,19.60
2017-06-19T02:10:07.694Z,19.60
2017-06-19T02:12:33.859Z,19.60
2017-06-19T02:15:00.822Z,19.60
2017-06-19T02:17:27.008Z,19.60
2017-06-19T02:19:53.179Z,19.50
2017-06-19T02:22:19.708Z,19.50
2017-06-19T02:24:45.908Z,19.50
2017-06-19T02:27:12.799Z,19.50
2017-06-19T02:29:38.972Z,19.50
2017-06-19T02:32:05.173Z,19.30
2017-06-19T02:34:31.387Z,19.40
2017-06-19T02:36:57.554Z,19.30
2017-06-19T02:39:23.740Z,19.30
2017-06-19T02:41:49.958Z,19.30
2017-06-19T02:44:16.887Z,19.20
2017-06-19T02:46:43.090Z,19.10
2017-06-19T02:49:09.252Z,19.10
2017-06-19T02:51:35.450Z,19.20
2017-06-19T02:54:01.597Z,19.20
2017-06-19T02:56:28.533Z,19.10
2017-06-19T02:58:55.469Z,19.10
2017-06-19T03:01:22.408Z,19.20
2017-06-19T03:03:48.608Z,19.20
2017-06-19T03:06:14.764Z,18.50
2017-06-19T03:08:40.958Z,19.20
2017-06-19T03:11:07.168Z,19.20
2017-06-19T03:13:33.357Z,19.20
2017-06-19T03:15:59.586Z,19.10
2017-06-19T03:18:26.569Z,19.00
2017-06-19T03:20:52.795Z,18.90
2017-06-19T03:23:18.986Z,18.90
2017-06-19T03:25:45.987Z,19.00
2017-06-19T03:28:12.199Z,19.00
2017-06-19T03:30:38.351Z,19.00
2017-06-19T03:33:04.566Z,19.00
2017-06-19T03:35:30.748Z,18.90
2017-06-19T03:37:56.920Z,18.90
2017-06-19T03:40:23.149Z,18.90
2017-06-19T03:42:49.327Z,18.90
2017-06-19T03:45:15.511Z,18.90
2017-06-19T03:47:41.686Z,18.90
2017-06-19T03:50:07.836Z,18.90
2017-06-19T03:52:33.989Z,18.90
2017-06-19T03:55:00.171Z,18.90
2017-06-19T03:57:42.051Z,18.90
2017-06-19T04:00:08.274Z,18.90
2017-06-19T04:02:34.463Z,18.90
2017-06-19T04:05:00.614Z,19.00
2017-06-19T04:07:26.769Z,19.00
2017-06-19T04:09:52.930Z,19.10
2017-06-19T04:12:19.109Z,19.10
2017-06-19T04:14:45.313Z,19.20
2017-06-19T04:17:11.518Z,19.30
2017-06-19T04:19:37.738Z,19.30
2017-06-19T04:22:03.895Z,19.40
2017-06-19T04:24:30.099Z,19.50
2017-06-19T04:26:56.309Z,20.00
2017-06-19T04:29:38.175Z,20.30
2017-06-19T04:32:05.112Z,20.50
2017-06-19T04:34:31.302Z,20.60
2017-06-19T04:36:57.492Z,20.70
2017-06-19T04:39:23.696Z,20.80
2017-06-19T04:41:49.902Z,21.00
2017-06-19T04:44:16.126Z,21.10
2017-06-19T04:46:42.308Z,21.10
2017-06-19T04:49:08.535Z,21.30
2017-06-19T04:51:34.758Z,21.40
2017-06-19T04:54:00.934Z,21.60
2017-06-19T04:56:27.066Z,21.60
2017-06-19T04:58:53.254Z,21.60
2017-06-19T05:01:19.433Z,21.70
2017-06-19T05:03:45.612Z,21.90
2017-06-19T05:06:11.812Z,22.00
2017-06-19T05:08:52.875Z,21.90
2017-06-19T05:11:19.079Z,22.40
2017-06-19T05:13:45.619Z,22.70
2017-06-19T05:16:11.788Z,22.90
2017-06-19T05:18:38.075Z,23.10
2017-06-19T05:21:04.625Z,23.20
2017-06-19T05:23:30.795Z,23.30
2017-06-19T05:25:57.007Z,23.30
2017-06-19T05:28:23.231Z,23.40
2017-06-19T05:30:49.411Z,23.50
2017-06-19T05:33:15.582Z,23.70
2017-06-19T05:35:41.721Z,23.80
2017-06-19T05:38:07.983Z,24.00
2017-06-19T05:40:34.895Z,24.40
2017-06-19T05:43:01.140Z,24.40
2017-06-19T05:45:27.350Z,24.50
2017-06-19T05:47:53.546Z,24.50
2017-06-19T05:50:19.722Z,24.60
2017-06-19T05:52:45.877Z,24.80
2017-06-19T05:55:12.831Z,25.10
2017-06-19T05:57:39.045Z,25.10
2017-06-19T06:00:05.976Z,25.30
2017-06-19T06:02:32.162Z,25.40
2017-06-19T06:04:58.344Z,25.50
2017-06-19T06:07:25.231Z,25.60
2017-06-19T06:09:51.444Z,25.80
2017-06-19T06:12:18.300Z,26.10
2017-06-19T06:14:44.487Z,26.00
2017-06-19T06:17:11.467Z,26.00
2017-06-19T06:19:37.644Z,26.10
2017-06-19T06:22:03.816Z,26.30
2017-06-19T06:24:30.002Z,26.30
2017-06-19T06:26:56.178Z,26.40
2017-06-19T06:29:22.369Z,26.50
2017-06-19T06:31:49.314Z,26.80
2017-06-19T06:34:15.482Z,27.00
2017-06-19T06:36:41.707Z,27.00
2017-06-19T06:39:07.867Z,27.00
2017-06-19T06:41:34.035Z,27.10
2017-06-19T06:44:01.010Z,27.30
2017-06-19T06:46:27.160Z,27.30
2017-06-19T06:48:53.316Z,27.50
2017-06-19T06:51:19.603Z,27.90
2017-06-19T06:53:45.791Z,27.90
2017-06-19T06:56:12.699Z,28.00
2017-06-19T06:58:38.899Z,28.00
2017-06-19T07:01:05.067Z,28.20
2017-06-19T07:03:31.266Z,28.50
2017-06-19T07:05:57.448Z,28.20
2017-06-19T07:08:24.376Z,28.50
2017-06-19T07:10:50.544Z,28.50
2017-06-19T07:13:16.818Z,28.70
2017-06-19T07:15:42.985Z,28.70
2017-06-19T07:18:09.919Z,28.80
2017-06-19T07:20:36.131Z,28.80
2017-06-19T07:23:02.308Z,29.10
2017-06-19T07:25:28.531Z,29.00
2017-06-19T07:27:54.742Z,29.40
2017-06-19T07:30:21.679Z,29.50
2017-06-19T07:32:48.643Z,29.50
2017-06-19T07:35:14.803Z,29.50
2017-06-19T07:37:41.026Z,29.70
2017-06-19T07:40:07.217Z,29.90
2017-06-19T07:42:34.163Z,30.10
2017-06-19T07:45:06.498Z,30.10
2017-06-19T07:47:32.694Z,30.40
2017-06-19T07:49:58.880Z,30.60
2017-06-19T07:52:25.435Z,30.70
2017-06-19T07:54:52.333Z,30.90
2017-06-19T07:57:18.526Z,31.20
2017-06-19T07:59:44.718Z,31.40
2017-06-19T08:02:11.682Z,31.50
2017-06-19T08:04:37.899Z,31.40
2017-06-19T08:07:04.798Z,31.40
2017-06-19T08:09:30.987Z,31.70
2017-06-19T08:11:57.920Z,32.00
2017-06-19T08:14:24.835Z,31.90
2017-06-19T08:16:51.095Z,31.50
2017-06-19T08:19:18.115Z,31.00
2017-06-19T08:21:50.291Z,31.00
2017-06-19T08:24:16.451Z,30.50
2017-06-19T08:26:42.657Z,30.50
2017-06-19T08:29:08.821Z,30.10
2017-06-19T08:31:35.355Z,30.20
2017-06-19T08:34:01.938Z,30.30
2017-06-19T08:36:28.105Z,30.10
2017-06-19T08:38:55.083Z,30.20
2017-06-19T08:41:21.332Z,30.30
2017-06-19T08:43:47.527Z,30.50
2017-06-19T08:46:13.744Z,30.40
2017-06-19T08:48:39.938Z,30.40
2017-06-19T08:51:06.134Z,30.60
2017-06-19T08:53:32.295Z,30.40
2017-06-19T08:55:58.520Z,30.40
2017-06-19T08:58:24.695Z,30.40
2017-06-19T09:00:50.924Z,30.40
2017-06-19T09:03:32.043Z,30.60
2017-06-19T09:05:58.260Z,30.50
2017-06-19T09:08:24.452Z,30.60
2017-06-19T09:10:50.635Z,30.80
2017-06-19T09:13:16.847Z,30.80
2017-06-19T09:15:43.036Z,30.80
2017-06-19T09:18:09.230Z,31.20
2017-06-19T09:20:35.393Z,31.20
2017-06-19T09:23:01.584Z,31.10
2017-06-19T09:25:27.824Z,31.10
2017-06-19T09:27:54.009Z,30.90
2017-06-19T09:30:20.180Z,30.90
2017-06-19T09:32:46.347Z,30.80
2017-06-19T09:35:12.518Z,30.70
2017-06-19T09:37:38.730Z,30.50
2017-06-19T09:40:04.953Z,30.40
2017-06-19T09:42:31.111Z,30.60
2017-06-19T09:44:57.296Z,31.00
2017-06-19T09:47:23.489Z,31.00
2017-06-19T09:49:49.658Z,31.10
2017-06-19T09:52:15.839Z,31.10
2017-06-19T09:54:42.752Z,31.20
2017-06-19T09:57:08.954Z,31.10
2017-06-19T09:59:35.126Z,31.50
2017-06-19T10:02:01.270Z,31.90
2017-06-19T10:04:28.176Z,32.30
2017-06-19T10:06:54.363Z,32.60
2017-06-19T10:09:20.515Z,32.60
2017-06-19T10:11:46.702Z,32.80
2017-06-19T10:14:13.679Z,33.20
2017-06-19T10:16:39.903Z,33.10
2017-06-19T10:19:06.134Z,33.10
2017-06-19T10:21:32.334Z,33.40
2017-06-19T10:23:59.272Z,33.00
2017-06-19T10:26:26.223Z,32.70
2017-06-19T10:28:53.146Z,33.10
2017-06-19T10:31:19.329Z,33.00
2017-06-19T10:33:45.523Z,33.10
2017-06-19T10:36:12.479Z,33.20
2017-06-19T10:38:39.390Z,32.70
2017-06-19T10:41:05.583Z,32.70
2017-06-19T10:43:31.778Z,32.60
2017-06-19T10:45:58.686Z,32.60
2017-06-19T10:48:24.931Z,32.90
2017-06-19T10:50:51.126Z,32.90
2017-06-19T10:53:17.340Z,32.80
2017-06-19T10:55:43.545Z,32.60
2017-06-19T10:58:09.743Z,32.50
2017-06-19T11:00:35.951Z,32.60
2017-06-19T11:03:02.201Z,32.40
2017-06-19T11:07:57.014Z,32.90
2017-06-19T11:10:23.196Z,32.70
2017-06-19T11:12:49.459Z,33.20
2017-06-19T11:15:15.652Z,33.10
2017-06-19T11:17:41.878Z,33.00
2017-06-19T11:20:08.074Z,33.40
2017-06-19T11:22:34.987Z,33.30
2017-06-19T11:25:01.187Z,33.20
2017-06-19T11:27:27.380Z,32.90
2017-06-19T11:29:54.282Z,33.20
2017-06-19T11:32:20.468Z,33.40
2017-06-19T11:34:46.639Z,33.40
2017-06-19T11:37:12.882Z,33.10
2017-06-19T11:39:39.030Z,33.20
2017-06-19T11:42:05.949Z,32.90
2017-06-19T11:44:32.146Z,32.40
2017-06-19T11:46:58.317Z,31.90
2017-06-19T11:49:24.474Z,32.00
2017-06-19T11:51:50.819Z,31.90
2017-06-19T11:54:17.087Z,31.60
2017-06-19T11:56:43.336Z,31.20
2017-06-19T11:59:09.527Z,31.50
2017-06-19T12:01:35.698Z,31.40
2017-06-19T12:04:01.897Z,31.50
2017-06-19T12:06:28.102Z,31.50
2017-06-19T12:08:54.267Z,31.60
2017-06-19T12:11:21.014Z,31.50
2017-06-19T12:13:48.249Z,31.60
2017-06-19T12:16:14.445Z,31.80
2017-06-19T12:18:40.630Z,31.70
2017-06-19T12:21:06.858Z,31.50
2017-06-19T12:23:33.083Z,31.70
2017-06-19T12:26:00.394Z,31.30
2017-06-19T12:28:26.570Z,31.10
2017-06-19T12:30:54.374Z,31.20
2017-06-19T12:33:20.634Z,31.40
2017-06-19T12:35:46.835Z,31.30
2017-06-19T12:38:13.025Z,31.30
2017-06-19T12:40:39.245Z,31.10
2017-06-19T12:43:05.397Z,31.30
2017-06-19T12:45:32.713Z,31.30
2017-06-19T12:47:58.866Z,31.20
2017-06-19T12:50:25.753Z,31.00
2017-06-19T12:52:51.903Z,31.00
2017-06-19T12:55:18.129Z,31.00
2017-06-19T12:57:44.320Z,31.00
2017-06-19T13:00:10.523Z,31.00
2017-06-19T13:02:37.442Z,31.10
2017-06-19T13:05:03.588Z,31.10
2017-06-19T13:07:29.759Z,30.80
2017-06-19T13:09:55.950Z,30.90
2017-06-19T13:12:22.853Z,31.30
2017-06-19T13:14:49.034Z,31.20
2017-06-19T13:17:15.948Z,31.30
2017-06-19T13:19:42.162Z,31.40
2017-06-19T13:22:08.293Z,31.50
2017-06-19T13:24:34.466Z,31.00
2017-06-19T13:27:01.376Z,31.10
2017-06-19T13:29:27.596Z,31.10
2017-06-19T13:31:53.785Z,31.00
2017-06-19T13:34:19.944Z,31.20
2017-06-19T13:36:46.120Z,31.30
2017-06-19T13:39:13.099Z,31.00
2017-06-19T13:41:39.240Z,31.00
2017-06-19T13:44:05.419Z,30.80
2017-06-19T13:46:32.343Z,30.90
2017-06-19T13:48:58.528Z,31.00
2017-06-19T13:51:24.712Z,30.90
2017-06-19T13:53:51.659Z,30.60
2017-06-19T13:56:18.603Z,30.50
2017-06-19T13:58:45.526Z,30.60
2017-06-19T14:01:11.699Z,30.70
2017-06-19T14:03:37.891Z,30.40
2017-06-19T14:06:04.039Z,30.40
2017-06-19T14:08:30.930Z,30.50
2017-06-19T14:10:57.118Z,30.30
2017-06-19T14:13:24.018Z,30.00
2017-06-19T14:15:50.236Z,30.00
2017-06-19T14:18:16.404Z,29.80
2017-06-19T14:20:43.338Z,29.80
2017-06-19T14:23:09.555Z,29.70
2017-06-19T14:25:35.742Z,29.80
2017-06-19T14:28:01.927Z,29.80
2017-06-19T14:30:28.522Z,29.70
2017-06-19T14:32:54.687Z,29.50
2017-06-19T14:35:20.874Z,29.70
2017-06-19T14:37:47.090Z,29.50
2017-06-19T14:40:13.287Z,29.40
2017-06-19T14:42:40.204Z,29.30
2017-06-19T14:45:06.389Z,29.20
2017-06-19T14:47:33.320Z,29.10
2017-06-19T14:49:59.876Z,28.90
2017-06-19T14:52:26.085Z,28.80
2017-06-19T14:54:52.339Z,28.90
2017-06-19T14:57:18.524Z,28.90
2017-06-19T14:59:44.734Z,29.00
2017-06-19T15:02:10.998Z,28.80
2017-06-19T15:04:37.949Z,28.80
2017-06-19T15:07:04.118Z,28.80
2017-06-19T15:09:30.290Z,28.80
2017-06-19T15:11:57.216Z,28.80
2017-06-19T15:14:23.382Z,28.90
2017-06-19T15:16:49.548Z,29.10
2017-06-19T15:19:15.722Z,29.10
2017-06-19T15:21:48.709Z,29.30
2017-06-19T15:24:15.659Z,29.30
2017-06-19T15:26:42.568Z,29.30
2017-06-19T15:29:08.775Z,29.30
2017-06-19T15:31:35.011Z,29.20
2017-06-19T15:34:01.196Z,29.20
2017-06-19T15:36:28.163Z,29.00
2017-06-19T15:38:54.409Z,28.90
2017-06-19T15:41:20.581Z,28.80
2017-06-19T15:43:47.514Z,28.70
2017-06-19T15:46:13.705Z,28.70
2017-06-19T15:48:39.890Z,28.60
2017-06-19T15:51:06.827Z,28.60
2017-06-19T15:53:33.065Z,28.60
2017-06-19T15:56:00.014Z,28.50
2017-06-19T15:58:26.287Z,28.50
2017-06-19T16:00:52.556Z,28.60
2017-06-19T16:03:18.788Z,28.60
2017-06-19T16:05:44.975Z,28.50
2017-06-19T16:08:11.244Z,28.50
2017-06-19T16:10:37.475Z,28.20
2017-06-19T16:13:03.658Z,28.00
2017-06-19T16:15:29.912Z,28.60
2017-06-19T16:17:56.079Z,28.50
2017-06-19T16:20:25.912Z,28.50
2017-06-19T16:22:52.471Z,28.50
2017-06-19T16:25:18.734Z,28.60
2017-06-19T16:27:44.959Z,28.50
2017-06-19T16:30:11.135Z,28.70
2017-06-19T16:32:37.353Z,28.70
2017-06-19T16:35:03.579Z,28.80
2017-06-19T16:37:29.823Z,28.50
2017-06-19T16:39:56.068Z,28.50
2017-06-19T16:42:22.255Z,28.30
2017-06-19T16:44:49.179Z,28.30
2017-06-19T16:47:15.367Z,28.40
2017-06-19T16:49:41.571Z,28.30
2017-06-19T16:52:07.740Z,28.30
2017-06-19T16:54:33.975Z,28.10
2017-06-19T16:57:00.208Z,28.20
2017-06-19T16:59:26.394Z,28.30
2017-06-19T17:01:52.620Z,27.60
2017-06-19T17:04:18.800Z,28.10
2017-06-19T17:06:44.980Z,28.00
2017-06-19T17:09:11.202Z,28.00
2017-06-19T17:11:37.403Z,28.00
2017-06-19T17:14:04.334Z,28.00
2017-06-19T17:16:30.502Z,28.00
2017-06-19T17:18:56.662Z,27.90
2017-06-19T17:21:22.905Z,27.90
2017-06-19T17:23:49.132Z,28.00
2017-06-19T17:26:15.345Z,27.90
2017-06-19T17:28:41.535Z,28.10
2017-06-19T17:31:07.798Z,28.10
2017-06-19T17:33:34.019Z,28.20
2017-06-19T17:36:00.611Z,28.10
2017-06-19T17:38:28.338Z,28.10
2017-06-19T17:40:54.535Z,27.90
2017-06-19T17:43:20.768Z,27.90
2017-06-19T17:45:46.954Z,27.90
2017-06-19T17:48:13.106Z,27.90
2017-06-19T17:50:40.027Z,27.80
2017-06-19T17:53:06.259Z,27.80
2017-06-19T17:55:32.466Z,27.80
2017-06-19T17:57:58.687Z,27.70
2017-06-19T18:00:24.945Z,27.80
2017-06-19T18:02:51.230Z,27.90
2017-06-19T18:05:17.464Z,27.90
2017-06-19T18:07:43.678Z,28.00
2017-06-19T18:10:09.863Z,28.00
2017-06-19T18:12:36.548Z,28.00
2017-06-19T18:15:02.735Z,27.90
2017-06-19T18:17:29.659Z,27.80
2017-06-19T18:19:55.933Z,27.70
2017-06-19T18:22:22.601Z,27.60
2017-06-19T18:24:49.573Z,27.60
2017-06-19T18:27:15.977Z,27.40
2017-06-19T18:29:42.211Z,27.40
2017-06-19T18:32:08.411Z,27.10
2017-06-19T18:34:34.652Z,27.00
2017-06-19T18:45:39.797Z,26.70
2017-06-19T18:48:05.985Z,26.70
2017-06-19T18:50:32.243Z,26.60
2017-06-19T18:52:58.551Z,26.50
2017-06-19T18:55:24.758Z,26.50
2017-06-19T18:57:50.987Z,26.50
2017-06-19T19:00:17.891Z,26.40
2017-06-19T19:02:44.107Z,26.40
2017-06-19T19:05:10.313Z,26.40
2017-06-19T19:07:36.686Z,26.40
2017-06-19T19:10:03.173Z,26.30
2017-06-19T19:12:30.227Z,26.30
2017-06-19T19:14:56.448Z,26.30
2017-06-19T19:17:22.705Z,26.30
2017-06-19T19:19:48.900Z,26.20
2017-06-19T19:22:15.108Z,26.20
2017-06-19T19:24:42.010Z,26.20
2017-06-19T19:27:08.228Z,26.20
2017-06-19T19:29:34.486Z,26.20
2017-06-19T19:32:00.693Z,26.10
2017-06-19T19:34:26.938Z,26.10
2017-06-19T19:36:53.191Z,26.00
2017-06-19T19:39:20.116Z,25.90
2017-06-19T19:41:47.127Z,25.90
2017-06-19T19:44:13.409Z,25.90
2017-06-19T19:46:40.343Z,25.80
2017-06-19T19:49:06.554Z,25.80
2017-06-19T19:51:32.753Z,25.70
2017-06-19T19:53:58.965Z,25.70
2017-06-19T19:56:25.319Z,25.60
2017-06-19T19:58:51.581Z,25.60
2017-06-19T20:01:17.831Z,25.60
2017-06-19T20:03:44.890Z,25.60
2017-06-19T20:06:11.835Z,25.50
2017-06-19T20:08:38.067Z,25.50
2017-06-19T20:11:05.096Z,25.50
2017-06-19T20:13:32.094Z,25.40
2017-06-19T20:15:59.331Z,25.40
2017-06-19T20:18:26.112Z,25.40
2017-06-19T20:20:53.074Z,25.30
2017-06-19T20:23:20.777Z,25.30
2017-06-19T20:25:47.274Z,25.30
2017-06-19T20:28:14.998Z,25.30
2017-06-19T20:30:42.338Z,25.30
2017-06-19T20:33:10.168Z,25.30
2017-06-19T20:35:36.596Z,25.30
2017-06-19T20:38:02.803Z,25.30
2017-06-19T20:40:29.030Z,25.30
2017-06-19T20:42:55.259Z,25.20
2017-06-19T20:45:21.430Z,25.20
2017-06-19T20:47:48.419Z,25.20
2017-06-19T20:50:14.689Z,25.10
2017-06-19T20:52:40.882Z,25.10
2017-06-19T20:55:07.104Z,25.00
2017-06-19T20:57:33.299Z,25.00
2017-06-19T21:00:00.216Z,25.00
2017-06-19T21:02:26.455Z,25.00
2017-06-19T21:04:53.421Z,24.90
2017-06-19T21:07:19.602Z,25.00
2017-06-19T21:09:45.859Z,24.90
2017-06-19T21:12:12.762Z,24.90
2017-06-19T21:14:38.977Z,24.80
2017-06-19T21:17:05.174Z,24.80
2017-06-19T21:19:32.168Z,24.80
2017-06-19T21:21:58.463Z,24.70
2017-06-19T21:24:24.726Z,24.60
2017-06-19T21:26:50.915Z,24.60
2017-06-19T21:29:17.915Z,24.60
2017-06-19T21:31:44.083Z,24.60
2017-06-19T21:34:11.048Z,24.60
2017-06-19T21:36:37.255Z,24.60
2017-06-19T21:39:04.236Z,24.60
2017-06-19T21:41:30.428Z,24.50
2017-06-19T21:43:57.376Z,24.50
2017-06-19T21:46:24.280Z,24.40
2017-06-19T21:48:50.481Z,24.40
2017-06-19T21:51:16.735Z,24.30
2017-06-19T21:53:42.963Z,24.20
2017-06-19T21:56:09.165Z,24.20
2017-06-19T21:58:35.446Z,24.10
2017-06-19T22:01:01.651Z,24.20
2017-06-19T22:03:27.821Z,24.00
2017-06-19T22:05:54.790Z,24.00
2017-06-19T22:08:21.004Z,24.00
2017-06-19T22:10:47.907Z,23.90
2017-06-19T22:13:14.077Z,23.90
2017-06-19T22:15:41.048Z,23.90
2017-06-19T22:18:07.277Z,23.90
2017-06-19T22:20:55.246Z,23.80
2017-06-19T22:23:21.483Z,23.90
2017-06-19T22:25:47.793Z,23.80
2017-06-19T22:28:14.009Z,23.80
2017-06-19T22:30:40.199Z,23.80
2017-06-19T22:33:07.223Z,23.80
2017-06-19T22:35:33.470Z,23.70
2017-06-19T22:37:59.669Z,23.70
2017-06-19T22:40:25.837Z,23.70
2017-06-19T22:42:53.521Z,23.60
2017-06-19T22:45:19.734Z,23.60
2017-06-19T22:47:46.691Z,23.60
2017-06-19T22:50:12.888Z,23.60
2017-06-19T22:52:39.076Z,23.50
2017-06-19T22:55:05.260Z,23.50
2017-06-19T22:57:32.232Z,23.50
2017-06-19T22:59:58.692Z,23.50
2017-06-19T23:02:24.939Z,23.40
2017-06-19T23:04:51.135Z,23.40
2017-06-19T23:07:17.355Z,23.40
2017-06-19T23:09:43.531Z,23.40
2017-06-19T23:12:09.711Z,23.40
2017-06-19T23:14:35.919Z,23.30
2017-06-19T23:17:02.854Z,23.30
2017-06-19T23:19:29.042Z,23.30
2017-06-19T23:21:55.203Z,23.20
2017-06-19T23:24:22.148Z,23.20
2017-06-19T23:26:49.062Z,23.10
2017-06-19T23:29:15.267Z,23.10
2017-06-19T23:31:41.441Z,23.10
2017-06-19T23:34:07.589Z,23.00
2017-06-19T23:36:34.499Z,22.80
2017-06-19T23:39:00.675Z,22.80
2017-06-19T23:41:26.868Z,22.70
2017-06-19T23:43:53.054Z,22.70
2017-06-19T23:46:19.267Z,22.70
2017-06-19T23:48:45.452Z,22.70
2017-06-19T23:51:11.622Z,22.70
2017-06-19T23:53:37.787Z,22.70
2017-06-19T23:56:03.984Z,22.80
2017-06-19T23:58:30.163Z,22.80
